Time;durP1;ratioP1;P1;durP2;ratioP2;P2;SDS_P1;SDS_P2;PMS_P1;PMS_P2;Temp;Humidity;BMP_temperature;BMP_pressure;BME280_temperature;BME280_humidity;BME280_pressure;Samples;Min_cycle;Max_cycle;Signal;HPM_P1;HPM_P2
2022/04/18 00:01:37;;;;;;;5.10;4.70;;;8.70;99.90;;;;;;5026251;28;20041;-84
2022/04/18 00:04:03;;;;;;;8.93;5.25;;;8.70;99.90;;;;;;5043899;28;20033;-84
2022/04/18 00:06:28;;;;;;;5.82;4.22;;;8.70;99.90;;;;;;5044322;28;20059;-84
2022/04/18 00:08:54;;;;;;;6.78;4.95;;;8.60;99.90;;;;;;5044033;28;20053;-84
2022/04/18 00:11:20;;;;;;;5.93;5.35;;;8.60;99.90;;;;;;5045069;28;20949;-84
2022/04/18 00:13:45;;;;;;;4.95;4.38;;;8.60;99.90;;;;;;5043922;28;20491;-84
2022/04/18 00:16:11;;;;;;;10.95;4.43;;;8.50;99.90;;;;;;5013591;28;20127;-84
2022/04/18 00:18:37;;;;;;;7.07;4.45;;;8.50;99.90;;;;;;5024065;28;20383;-84
2022/04/18 00:21:02;;;;;;;6.22;4.85;;;8.50;99.90;;;;;;5038883;28;20045;-84
2022/04/18 00:23:28;;;;;;;8.20;5.85;;;8.50;99.90;;;;;;5022693;28;20456;-84
2022/04/18 00:25:53;;;;;;;6.10;5.53;;;8.40;99.90;;;;;;5039212;28;20057;-84
2022/04/18 00:28:19;;;;;;;5.40;4.13;;;8.40;99.90;;;;;;5023176;28;20033;-84
2022/04/18 00:30:45;;;;;;;6.78;4.82;;;8.30;99.90;;;;;;5038309;28;20045;-84
2022/04/18 00:33:10;;;;;;;5.00;4.55;;;8.30;99.90;;;;;;5043068;28;20067;-84
2022/04/18 00:35:36;;;;;;;7.25;5.20;;;8.30;99.90;;;;;;5058251;28;20539;-84
2022/04/18 00:38:02;;;;;;;8.90;4.80;;;8.30;99.90;;;;;;5024847;28;20571;-84
2022/04/18 00:40:27;;;;;;;7.47;5.38;;;8.30;99.90;;;;;;5059115;28;20049;-84
2022/04/18 00:43:02;;;;;;;5.82;5.28;;;8.20;99.90;;;;;;5058473;28;20064;-84
2022/04/18 00:45:27;;;;;;;5.78;5.18;;;8.20;99.90;;;;;;5021148;28;20049;-84
2022/04/18 00:47:53;;;;;;;8.48;5.72;;;8.20;99.90;;;;;;5055528;28;20259;-84
2022/04/18 00:50:19;;;;;;;4.50;4.03;;;8.20;99.90;;;;;;5023292;28;20041;-84
2022/04/18 00:52:46;;;;;;;7.53;5.95;;;8.20;99.90;;;;;;5023487;28;20041;-84
2022/04/18 00:55:13;;;;;;;5.47;4.20;;;8.10;99.90;;;;;;5033944;28;20052;-84
2022/04/18 00:57:40;;;;;;;6.93;5.25;;;8.10;99.90;;;;;;5031906;28;20049;-84
2022/04/18 01:00:06;;;;;;;9.55;5.65;;;8.20;99.90;;;;;;5021801;28;20331;-84
2022/04/18 01:02:32;;;;;;;10.80;6.30;;;8.10;99.90;;;;;;4988256;28;20693;-84
2022/04/18 01:04:58;;;;;;;9.02;5.93;;;8.10;99.90;;;;;;5024340;28;20075;-83
2022/04/18 01:07:24;;;;;;;11.07;5.10;;;8.10;99.90;;;;;;5039050;28;20270;-84
2022/04/18 01:09:50;;;;;;;5.97;5.30;;;8.10;99.90;;;;;;5037764;23;20056;-84
2022/04/18 01:12:15;;;;;;;6.70;6.00;;;8.10;99.90;;;;;;5025919;28;20462;-84
2022/04/18 01:14:50;;;;;;;8.50;5.18;;;8.00;99.90;;;;;;5043644;28;20049;-83
2022/04/18 01:17:16;;;;;;;10.23;6.78;;;8.00;99.90;;;;;;5063202;28;20037;-84
2022/04/18 01:19:42;;;;;;;7.95;5.03;;;8.00;99.90;;;;;;5062997;28;20498;-83
2022/04/18 01:22:09;;;;;;;9.00;5.57;;;8.00;99.90;;;;;;5063076;28;20106;-84
2022/04/18 01:30:05;;;;;;;4.90;4.30;;;7.90;99.90;;;;;;5042824;28;20053;-84
2022/04/18 01:32:31;;;;;;;9.77;6.10;;;7.90;99.90;;;;;;5044106;28;20534;-83
2022/04/18 01:34:57;;;;;;;7.18;5.97;;;7.90;99.90;;;;;;5044834;28;20037;-84
2022/04/18 01:37:23;;;;;;;12.35;5.97;;;7.90;99.90;;;;;;5043965;28;20069;-83
2022/04/18 01:39:49;;;;;;;10.50;5.28;;;7.80;99.90;;;;;;5059579;28;20048;-84
2022/04/18 01:42:15;;;;;;;8.25;4.32;;;7.80;99.90;;;;;;5063459;28;20045;-84
2022/04/18 01:44:41;;;;;;;7.97;5.70;;;7.70;99.90;;;;;;5044656;28;20673;-84
2022/04/18 01:47:07;;;;;;;5.53;4.78;;;7.80;99.90;;;;;;5060843;28;20466;-84
2022/04/18 01:49:32;;;;;;;9.45;5.35;;;7.70;99.90;;;;;;5063845;28;20071;-84
2022/04/18 01:51:58;;;;;;;5.28;4.25;;;7.70;99.90;;;;;;5064277;28;20502;-84
2022/04/18 01:54:24;;;;;;;6.18;5.65;;;7.70;99.90;;;;;;5063315;28;20522;-83
2022/04/18 01:56:49;;;;;;;6.25;4.72;;;7.60;99.90;;;;;;5029303;28;20043;-83
2022/04/18 01:59:15;;;;;;;11.10;6.07;;;7.60;99.90;;;;;;5062043;28;20098;-84
2022/04/18 02:01:41;;;;;;;5.93;5.32;;;7.60;99.90;;;;;;5062448;28;20076;-84
2022/04/18 02:04:07;;;;;;;8.38;5.03;;;7.60;99.90;;;;;;5063374;28;20036;-84
2022/04/18 02:06:33;;;;;;;5.78;4.55;;;7.60;99.90;;;;;;5045212;28;20425;-83
2022/04/18 02:08:59;;;;;;;7.13;5.93;;;7.50;99.90;;;;;;5055310;28;20033;-84
2022/04/18 02:11:25;;;;;;;12.82;6.35;;;7.50;99.90;;;;;;5054374;28;20053;-83
2022/04/18 02:13:52;;;;;;;6.57;5.75;;;7.40;99.90;;;;;;5027261;28;20287;-83
2022/04/18 02:16:18;;;;;;;5.95;4.97;;;7.40;99.90;;;;;;5062761;28;20075;-83
2022/04/18 02:18:44;;;;;;;6.57;4.85;;;7.40;99.90;;;;;;5063299;28;20383;-83
2022/04/18 02:21:11;;;;;;;9.48;4.53;;;7.40;99.90;;;;;;5044900;28;20085;-83
2022/04/18 02:23:41;;;;;;;5.95;5.32;;;7.40;99.90;;;;;;5047509;28;20491;-83
2022/04/18 02:26:06;;;;;;;6.18;5.57;;;7.30;99.90;;;;;;5042421;28;20618;-83
2022/04/18 02:28:32;;;;;;;6.35;4.78;;;7.30;99.90;;;;;;5043260;28;20186;-83
2022/04/18 02:30:58;;;;;;;7.63;6.30;;;7.30;99.90;;;;;;5042270;28;20048;-83
2022/04/18 02:33:24;;;;;;;8.13;5.88;;;7.30;99.90;;;;;;5042880;28;20033;-83
2022/04/18 02:35:50;;;;;;;8.43;6.00;;;7.20;99.90;;;;;;5024926;28;20124;-83
2022/04/18 02:38:16;;;;;;;18.00;5.72;;;7.20;99.90;;;;;;5024654;28;20060;-83
2022/04/18 02:40:42;;;;;;;8.00;5.57;;;7.20;99.90;;;;;;5042401;28;20072;-83
2022/04/18 02:43:08;;;;;;;8.75;5.53;;;7.10;99.90;;;;;;5042330;28;20392;-83
2022/04/18 02:45:35;;;;;;;7.22;5.82;;;7.10;99.90;;;;;;5026713;28;20606;-84
2022/04/18 02:48:01;;;;;;;5.13;4.80;;;7.10;99.90;;;;;;5058483;28;20052;-83
2022/04/18 02:50:27;;;;;;;6.28;5.40;;;7.10;99.90;;;;;;5045079;28;20193;-83
2022/04/18 02:52:53;;;;;;;6.45;5.55;;;7.10;99.90;;;;;;5053208;28;20132;-83
2022/04/18 02:55:20;;;;;;;11.32;6.13;;;7.00;99.90;;;;;;5024252;28;20064;-83
2022/04/18 02:57:45;;;;;;;6.78;5.47;;;7.00;99.90;;;;;;5041641;28;20045;-83
2022/04/18 03:00:13;;;;;;;7.78;7.05;;;7.00;99.90;;;;;;5041092;28;20029;-83
2022/04/18 03:02:39;;;;;;;6.55;5.13;;;6.90;99.90;;;;;;5042539;28;20045;-83
2022/04/18 03:05:07;;;;;;;10.38;5.25;;;6.90;99.90;;;;;;5041985;28;20467;-83
2022/04/18 03:07:33;;;;;;;5.75;4.47;;;6.90;99.90;;;;;;5042087;28;20410;-83
2022/04/18 03:09:59;;;;;;;7.78;6.80;;;6.90;99.90;;;;;;5042137;28;20045;-83
2022/04/18 03:12:25;;;;;;;6.03;4.70;;;6.80;99.90;;;;;;5042124;28;20052;-83
2022/04/18 03:14:51;;;;;;;7.75;6.05;;;6.80;99.90;;;;;;5023389;28;20041;-83
2022/04/18 03:17:17;;;;;;;7.07;6.35;;;6.80;99.90;;;;;;5040702;28;20044;-84
2022/04/18 03:19:42;;;;;;;12.88;6.20;;;6.80;99.90;;;;;;5042273;28;20041;-83
2022/04/18 03:22:08;;;;;;;7.38;5.68;;;6.80;99.90;;;;;;5041791;28;20041;-83
2022/04/18 03:24:34;;;;;;;7.90;6.97;;;6.70;99.90;;;;;;5041947;28;20041;-83
2022/04/18 03:27:04;;;;;;;6.38;5.75;;;6.70;99.90;;;;;;5024233;28;20052;-83
2022/04/18 03:29:31;;;;;;;10.55;7.65;;;6.60;99.90;;;;;;5023747;28;20041;-83
2022/04/18 03:31:57;;;;;;;7.82;5.93;;;6.70;99.90;;;;;;5042416;28;20064;-83
2022/04/18 03:34:23;;;;;;;7.22;6.63;;;6.70;99.90;;;;;;5041956;28;20040;-83
2022/04/18 03:39:52;;;;;;;8.02;7.20;;;6.60;99.90;;;;;;5053912;28;20040;-83
2022/04/18 03:42:31;;;;;;;7.03;6.32;;;6.60;99.90;;;;;;5043396;28;20044;-83
2022/04/18 03:45:01;;;;;;;9.77;6.97;;;6.60;99.90;;;;;;5025803;28;20378;-83
2022/04/18 03:47:28;;;;;;;10.48;7.30;;;6.50;99.90;;;;;;5061557;28;20054;-83
2022/04/18 03:49:54;;;;;;;7.22;5.43;;;6.50;99.90;;;;;;5060816;28;20080;-83
2022/04/18 03:52:22;;;;;;;7.30;6.60;;;6.50;99.90;;;;;;5054734;28;20923;-83
2022/04/18 03:54:48;;;;;;;11.32;6.75;;;6.50;99.90;;;;;;5042086;28;20041;-83
2022/04/18 03:57:14;;;;;;;8.38;7.15;;;6.50;99.90;;;;;;5023569;28;20402;-83
2022/04/18 03:59:40;;;;;;;9.77;5.88;;;6.50;99.90;;;;;;5040414;28;20052;-83
2022/04/18 04:02:06;;;;;;;7.47;6.13;;;6.50;99.90;;;;;;5041336;28;20041;-83
2022/04/18 04:04:32;;;;;;;7.55;6.63;;;6.40;99.90;;;;;;5023844;28;20048;-83
2022/04/18 04:06:58;;;;;;;6.10;5.50;;;6.40;99.90;;;;;;5052916;28;20525;-83
2022/04/18 04:09:24;;;;;;;7.28;5.35;;;6.40;99.90;;;;;;5061299;28;20072;-83
2022/04/18 04:11:50;;;;;;;8.18;6.88;;;6.40;99.90;;;;;;5075648;28;20123;-83
2022/04/18 04:14:16;;;;;;;20.90;7.68;;;6.40;99.90;;;;;;5080359;28;20105;-83
2022/04/18 04:16:41;;;;;;;10.25;6.38;;;6.30;99.90;;;;;;5063949;28;20067;-83
2022/04/18 04:19:07;;;;;;;8.00;7.07;;;6.30;99.90;;;;;;5080121;28;20079;-83
2022/04/18 04:21:33;;;;;;;6.93;6.35;;;6.20;99.90;;;;;;5050051;28;20038;-83
2022/04/18 04:24:00;;;;;;;8.18;6.65;;;6.20;99.90;;;;;;5061993;28;20475;-83
2022/04/18 04:26:25;;;;;;;7.35;6.65;;;6.20;99.90;;;;;;5061923;28;20072;-83
2022/04/18 04:28:51;;;;;;;7.97;6.43;;;6.20;99.90;;;;;;5060417;28;20083;-83
2022/04/18 04:31:17;;;;;;;9.02;6.05;;;6.10;99.90;;;;;;5060966;28;20044;-83
2022/04/18 04:33:42;;;;;;;7.53;6.80;;;6.10;99.90;;;;;;5061716;28;20257;-83
2022/04/18 04:36:08;;;;;;;7.60;5.97;;;6.20;99.90;;;;;;5061454;28;20596;-83
2022/04/18 04:38:34;;;;;;;7.82;7.05;;;6.10;99.90;;;;;;5063827;28;20037;-83
2022/04/18 04:41:00;;;;;;;7.53;6.43;;;6.20;99.90;;;;;;5065230;28;20047;-83
2022/04/18 04:43:28;;;;;;;7.13;5.93;;;6.10;99.90;;;;;;5064092;28;20037;-83
2022/04/18 04:45:57;;;;;;;9.82;7.30;;;6.10;99.90;;;;;;5071429;28;20051;-83
2022/04/18 04:48:23;;;;;;;11.48;7.05;;;6.10;99.90;;;;;;5085081;28;20084;-83
2022/04/18 04:50:49;;;;;;;10.00;6.93;;;6.00;99.90;;;;;;5076469;28;20044;-82
2022/04/18 04:53:15;;;;;;;12.05;8.43;;;6.00;99.90;;;;;;5082417;28;20040;-82
2022/04/18 04:55:41;;;;;;;8.73;7.50;;;6.00;99.90;;;;;;5066733;28;20078;-82
2022/04/18 04:58:09;;;;;;;8.50;7.43;;;6.00;99.90;;;;;;5050088;28;20785;-83
2022/04/18 05:00:35;;;;;;;7.95;7.10;;;6.00;99.90;;;;;;5065782;28;20126;-83
2022/04/18 05:03:01;;;;;;;6.25;5.65;;;6.00;99.90;;;;;;5085023;28;20052;-83
2022/04/18 05:05:27;;;;;;;7.30;6.30;;;6.00;99.90;;;;;;5071974;28;20051;-83
2022/04/18 05:07:52;;;;;;;7.97;6.78;;;6.00;99.90;;;;;;5046921;28;20395;-83
2022/04/18 05:10:18;;;;;;;7.18;6.38;;;6.00;99.90;;;;;;5064279;28;20044;-83
2022/04/18 05:12:43;;;;;;;6.03;5.47;;;6.00;99.90;;;;;;5046671;28;20067;-83
2022/04/18 05:15:09;;;;;;;8.98;7.30;;;6.00;99.90;;;;;;5063071;28;20059;-83
2022/04/18 05:17:35;;;;;;;10.48;6.60;;;6.00;99.90;;;;;;5064752;28;20052;-83
2022/04/18 05:20:03;;;;;;;6.88;6.28;;;6.10;99.90;;;;;;5045145;28;20041;-82
2022/04/18 05:22:28;;;;;;;9.05;6.32;;;6.10;99.90;;;;;;5065169;28;20052;-83
2022/04/18 05:24:55;;;;;;;7.72;6.78;;;6.10;99.90;;;;;;5064457;28;20387;-83
2022/04/18 05:27:21;;;;;;;8.38;6.95;;;6.10;99.90;;;;;;5064046;28;20514;-82
2022/04/18 05:29:46;;;;;;;7.95;7.30;;;6.10;99.90;;;;;;5044460;28;20158;-83
2022/04/18 05:32:12;;;;;;;7.15;6.55;;;6.20;99.90;;;;;;5063912;28;20114;-83
2022/04/18 05:34:38;;;;;;;11.52;6.82;;;6.20;99.90;;;;;;5063777;28;20072;-83
2022/04/18 05:37:04;;;;;;;8.35;6.20;;;6.20;99.90;;;;;;5064107;28;20044;-83
2022/04/18 05:39:30;;;;;;;10.05;7.53;;;6.30;99.90;;;;;;5064443;28;20040;-83
2022/04/18 05:41:56;;;;;;;9.15;6.95;;;6.30;99.90;;;;;;5063642;28;20048;-82
2022/04/18 05:44:22;;;;;;;8.65;7.72;;;6.30;99.90;;;;;;5071882;28;20146;-83
2022/04/18 05:46:49;;;;;;;17.35;8.65;;;6.30;99.90;;;;;;5081488;28;20092;-83
2022/04/18 05:49:15;;;;;;;17.67;7.15;;;6.40;99.90;;;;;;5054305;28;20041;-83
2022/04/18 05:51:40;;;;;;;9.05;8.00;;;6.40;99.90;;;;;;5064098;28;20613;-83
2022/04/18 05:54:06;;;;;;;8.48;7.28;;;6.40;99.90;;;;;;5044649;28;20033;-83
2022/04/18 05:56:32;;;;;;;14.63;7.15;;;6.40;99.90;;;;;;5063642;28;20044;-82
2022/04/18 05:58:58;;;;;;;13.35;7.53;;;6.50;99.90;;;;;;5063000;28;20070;-83
2022/04/18 06:01:24;;;;;;;7.57;5.90;;;6.60;99.90;;;;;;5062931;28;20089;-83
2022/04/18 06:03:49;;;;;;;7.70;6.55;;;6.60;99.90;;;;;;5051068;28;20028;-83
2022/04/18 06:06:15;;;;;;;17.38;7.75;;;6.50;99.90;;;;;;5064824;28;20552;-83
2022/04/18 06:08:44;;;;;;;9.13;6.90;;;6.60;99.90;;;;;;5083599;28;20152;-82
2022/04/18 06:11:09;;;;;;;7.60;5.85;;;6.70;99.90;;;;;;5083397;28;20410;-83
2022/04/18 06:13:35;;;;;;;8.18;6.50;;;6.70;99.90;;;;;;5064645;28;20051;-83
2022/04/18 06:16:00;;;;;;;14.27;7.88;;;6.80;99.90;;;;;;5048371;28;20470;-82
2022/04/18 06:18:27;;;;;;;8.43;6.28;;;6.80;99.90;;;;;;5065465;28;20052;-83
2022/04/18 06:20:53;;;;;;;8.10;7.38;;;6.80;99.90;;;;;;5065133;28;20474;-83
2022/04/18 06:23:19;;;;;;;9.35;7.75;;;6.80;99.90;;;;;;5081286;28;20043;-83
2022/04/18 06:25:45;;;;;;;7.18;5.97;;;6.90;99.90;;;;;;5063556;28;20085;-83
2022/04/18 06:28:12;;;;;;;11.15;7.32;;;6.90;99.90;;;;;;5041160;28;20057;-83
2022/04/18 06:30:38;;;;;;;9.82;7.45;;;7.00;99.90;;;;;;5043255;28;20040;-83
2022/04/18 06:33:04;;;;;;;8.30;6.45;;;7.00;99.90;;;;;;5052891;28;20494;-83
2022/04/18 06:35:30;;;;;;;11.15;7.90;;;7.10;99.90;;;;;;5051287;28;20079;-83
2022/04/18 06:37:55;;;;;;;12.88;7.60;;;7.10;99.90;;;;;;5059342;28;20072;-83
2022/04/18 06:40:21;;;;;;;12.07;7.68;;;7.10;99.90;;;;;;5060112;28;20052;-82
2022/04/18 06:42:47;;;;;;;7.57;6.75;;;7.20;99.90;;;;;;5061561;28;20067;-83
2022/04/18 06:45:12;;;;;;;11.68;7.65;;;7.20;99.90;;;;;;5061149;28;20037;-83
2022/04/18 06:47:38;;;;;;;13.18;7.45;;;7.30;99.90;;;;;;5027776;28;20044;-82
2022/04/18 06:50:10;;;;;;;12.73;7.80;;;7.30;99.90;;;;;;5061688;28;20482;-83
2022/04/18 06:52:40;;;;;;;9.52;6.53;;;7.30;99.90;;;;;;5061524;28;20054;-83
2022/04/18 06:55:07;;;;;;;6.50;5.90;;;7.40;99.90;;;;;;5058750;28;20616;-83
2022/04/18 06:57:33;;;;;;;6.70;6.07;;;7.40;99.90;;;;;;5056946;28;20059;-83
2022/04/18 06:59:58;;;;;;;7.55;6.70;;;7.40;99.90;;;;;;5060727;28;20703;-83
2022/04/18 07:02:24;;;;;;;8.57;7.18;;;7.50;99.90;;;;;;5064588;28;20491;-84
2022/04/18 07:04:50;;;;;;;9.50;7.97;;;7.50;99.90;;;;;;5044406;28;20037;-83
2022/04/18 07:07:15;;;;;;;12.75;8.55;;;7.60;99.90;;;;;;5062149;28;20040;-83
2022/04/18 07:09:41;;;;;;;9.77;8.63;;;7.60;99.90;;;;;;5071998;28;20090;-83
2022/04/18 07:12:07;;;;;;;12.02;8.27;;;7.70;99.90;;;;;;5062445;28;20041;-83
2022/04/18 07:14:36;;;;;;;11.15;6.63;;;7.70;99.90;;;;;;5061483;28;20115;-83
2022/04/18 07:17:01;;;;;;;9.50;7.03;;;7.70;99.90;;;;;;5061866;28;20036;-83
2022/04/18 07:19:31;;;;;;;7.75;7.05;;;7.80;99.90;;;;;;5056189;28;20556;-83
2022/04/18 07:21:57;;;;;;;9.75;7.45;;;7.90;99.90;;;;;;5037601;28;20052;-84
2022/04/18 07:24:23;;;;;;;7.88;7.18;;;7.90;99.90;;;;;;5042544;28;20045;-83
2022/04/18 07:26:49;;;;;;;6.93;6.22;;;8.00;99.90;;;;;;5061829;28;20050;-82
2022/04/18 07:29:15;;;;;;;9.85;7.07;;;8.00;99.90;;;;;;5061038;28;20036;-82
2022/04/18 07:31:40;;;;;;;8.48;6.95;;;8.10;99.90;;;;;;5064448;28;20133;-82
2022/04/18 07:34:06;;;;;;;17.33;8.00;;;8.20;99.90;;;;;;5061509;28;20043;-81
2022/04/18 07:36:38;;;;;;;9.70;7.97;;;8.20;99.90;;;;;;5064950;28;20045;-82
2022/04/18 07:39:03;;;;;;;12.13;6.22;;;8.30;99.90;;;;;;5062657;28;20047;-83
2022/04/18 07:41:29;;;;;;;12.65;7.25;;;8.30;99.90;;;;;;5056962;28;20491;-82
2022/04/18 07:43:57;;;;;;;9.15;6.47;;;8.40;99.90;;;;;;5046767;28;20037;-82
2022/04/18 07:46:22;;;;;;;12.82;6.75;;;8.40;99.90;;;;;;5039690;28;20049;-82
2022/04/18 07:48:51;;;;;;;6.05;5.15;;;8.50;99.90;;;;;;5060074;28;20036;-82
2022/04/18 07:51:38;;;;;;;11.20;7.15;;;8.60;99.90;;;;;;5061784;28;20036;-82
2022/04/18 07:54:06;;;;;;;10.95;7.50;;;8.60;99.90;;;;;;5045348;28;20130;-82
2022/04/18 07:56:33;;;;;;;8.00;6.00;;;8.70;99.90;;;;;;5052670;28;20429;-83
2022/04/18 07:59:02;;;;;;;8.55;7.20;;;8.70;99.90;;;;;;5077494;28;20035;-85
2022/04/18 08:01:28;;;;;;;10.77;6.60;;;8.80;99.90;;;;;;5062562;28;20773;-83
2022/04/18 08:03:54;;;;;;;11.85;7.57;;;8.80;99.90;;;;;;5064065;28;20036;-82
2022/04/18 08:06:22;;;;;;;8.65;5.45;;;8.90;99.90;;;;;;5049442;28;20539;-81
2022/04/18 08:08:48;;;;;;;5.03;4.63;;;9.00;99.90;;;;;;5061538;28;20032;-83
2022/04/18 08:11:17;;;;;;;6.40;5.78;;;9.10;99.90;;;;;;5062412;28;20056;-84
2022/04/18 08:13:44;;;;;;;9.77;6.80;;;9.10;99.90;;;;;;5063303;28;20048;-84
2022/04/18 08:16:13;;;;;;;9.52;6.80;;;9.10;99.90;;;;;;5041827;28;20060;-84
2022/04/18 08:18:42;;;;;;;6.53;5.32;;;9.20;99.90;;;;;;5041924;28;20098;-83
2022/04/18 08:21:08;;;;;;;8.10;6.82;;;9.20;99.90;;;;;;5051339;28;20442;-83
2022/04/18 08:23:34;;;;;;;12.55;6.75;;;9.30;99.90;;;;;;5059076;28;20502;-83
2022/04/18 08:26:02;;;;;;;7.95;7.15;;;9.40;99.90;;;;;;5045126;28;20076;-83
2022/04/18 08:28:27;;;;;;;7.20;6.40;;;9.50;99.90;;;;;;5045369;28;20122;-83
2022/04/18 08:30:54;;;;;;;6.82;5.35;;;9.50;99.90;;;;;;5056297;28;20479;-83
2022/04/18 08:33:20;;;;;;;7.38;5.40;;;9.50;99.90;;;;;;5044295;28;20115;-84
2022/04/18 08:35:46;;;;;;;7.10;6.45;;;9.60;99.90;;;;;;5024747;28;20041;-83
2022/04/18 08:38:12;;;;;;;10.68;6.43;;;9.60;99.90;;;;;;5041248;28;20044;-83
2022/04/18 08:40:40;;;;;;;6.53;5.13;;;9.70;99.90;;;;;;5044950;28;20033;-84
2022/04/18 08:43:06;;;;;;;9.55;4.82;;;9.70;99.90;;;;;;5041968;28;20691;-83
2022/04/18 08:45:32;;;;;;;13.15;4.68;;;9.80;99.90;;;;;;5047850;28;20134;-83
2022/04/18 08:53:36;;;;;;;7.72;5.43;;;10.10;99.90;;;;;;5044744;28;20478;-83
2022/04/18 08:56:02;;;;;;;6.07;5.57;;;10.20;99.90;;;;;;5043886;28;20034;-79
2022/04/18 08:58:28;;;;;;;9.48;5.55;;;10.20;99.90;;;;;;5043433;28;20045;-80
2022/04/18 09:00:59;;;;;;;11.07;6.70;;;10.30;99.90;;;;;;5025911;28;20033;-80
2022/04/18 09:03:25;;;;;;;4.03;3.72;;;10.40;99.90;;;;;;5043263;28;20491;-80
2022/04/18 09:06:06;;;;;;;10.85;5.82;;;10.50;99.90;;;;;;5042982;28;20183;-80
2022/04/18 09:08:52;;;;;;;4.33;4.00;;;10.70;99.90;;;;;;5043816;28;20048;-79
2022/04/18 09:11:37;;;;;;;5.32;4.82;;;10.80;99.90;;;;;;5058970;28;20457;-80
2022/04/18 09:14:14;;;;;;;8.95;4.93;;;10.90;99.90;;;;;;5043407;28;20149;-80
2022/04/18 09:16:41;;;;;;;9.77;5.65;;;10.90;99.90;;;;;;5058394;28;20394;-79
2022/04/18 09:19:12;;;;;;;8.85;5.25;;;10.90;99.90;;;;;;5068199;28;20071;-79
2022/04/18 09:22:03;;;;;;;5.32;4.82;;;10.90;99.90;;;;;;5052537;28;20856;-91
2022/04/18 09:24:32;;;;;;;5.05;4.55;;;10.90;99.90;;;;;;5037922;28;20086;-95
2022/04/18 09:27:14;;;;;;;8.55;4.65;;;11.10;99.90;;;;;;5035365;28;20131;-87
2022/04/18 09:29:40;;;;;;;13.68;4.07;;;11.20;99.90;;;;;;5060415;28;20048;-87
2022/04/18 09:32:21;;;;;;;5.82;3.72;;;11.20;99.90;;;;;;5057938;28;20037;-86
2022/04/18 09:34:58;;;;;;;4.32;3.97;;;11.30;99.90;;;;;;5063744;28;20052;-88
2022/04/18 09:37:28;;;;;;;6.25;4.80;;;11.40;99.90;;;;;;5059548;28;20127;-84
2022/04/18 09:39:54;;;;;;;4.65;4.07;;;11.50;99.90;;;;;;5054965;28;20119;-82
2022/04/18 09:42:25;;;;;;;8.25;4.35;;;11.50;99.90;;;;;;5052830;28;20044;-88
2022/04/18 09:44:50;;;;;;;6.03;4.18;;;11.60;99.90;;;;;;5032614;28;20053;-81
2022/04/18 09:47:18;;;;;;;3.78;3.45;;;11.60;99.90;;;;;;5046174;28;20044;-79
2022/04/18 09:49:44;;;;;;;7.53;4.47;;;11.60;99.90;;;;;;5039729;28;20033;-78
2022/04/18 09:52:13;;;;;;;8.25;4.05;;;11.70;99.90;;;;;;5042401;28;20079;-79
2022/04/18 09:54:50;;;;;;;6.10;4.85;;;11.70;99.90;;;;;;5058019;28;20048;-79
2022/04/18 09:57:28;;;;;;;4.85;4.18;;;11.70;99.90;;;;;;5061564;28;20611;-81
2022/04/18 09:59:57;;;;;;;6.47;3.42;;;11.70;99.90;;;;;;5059676;28;20085;-81
2022/04/18 10:02:24;;;;;;;4.72;3.72;;;11.80;99.90;;;;;;5067977;28;20506;-78
2022/04/18 10:04:51;;;;;;;5.88;3.88;;;11.90;99.90;;;;;;5062446;28;20494;-78
2022/04/18 10:07:17;;;;;;;6.25;2.70;;;11.90;99.90;;;;;;5062559;28;20051;-78
2022/04/18 10:09:43;;;;;;;4.18;3.78;;;12.00;99.90;;;;;;5041242;28;20132;-78
2022/04/18 10:12:11;;;;;;;7.05;3.97;;;12.00;99.90;;;;;;5059418;28;20704;-78
2022/04/18 10:14:38;;;;;;;7.28;3.63;;;12.20;99.90;;;;;;5039800;28;20032;-80
2022/04/18 10:17:07;;;;;;;6.72;2.67;;;12.20;99.90;;;;;;5053532;28;20056;-79
2022/04/18 10:19:52;;;;;;;5.00;2.92;;;12.30;99.90;;;;;;5061748;28;20036;-78
2022/04/18 10:22:49;;;;;;;4.22;3.50;;;12.40;99.90;;;;;;5046160;28;20556;-79
2022/04/18 10:25:41;;;;;;;6.90;3.47;;;12.40;99.90;;;;;;5042858;28;20090;-79
2022/04/18 10:28:17;;;;;;;2.30;2.10;;;12.40;99.90;;;;;;5042571;28;20139;-81
2022/04/18 10:30:57;;;;;;;5.50;3.15;;;12.50;99.90;;;;;;5057533;28;20041;-79
2022/04/18 10:33:23;;;;;;;6.82;3.85;;;12.60;99.90;;;;;;5043300;28;20045;-79
2022/04/18 10:36:01;;;;;;;2.50;2.35;;;12.60;99.90;;;;;;5042867;28;20055;-78
2022/04/18 10:38:30;;;;;;;4.78;3.08;;;12.60;99.90;;;;;;5043234;28;20116;-77
2022/04/18 10:41:14;;;;;;;6.68;3.83;;;12.60;99.90;;;;;;5043578;28;20064;-76
2022/04/18 10:44:01;;;;;;;3.28;3.05;;;12.70;99.90;;;;;;5057976;28;20049;-76
2022/04/18 10:46:27;;;;;;;3.90;2.80;;;12.70;99.90;;;;;;5049293;28;20666;-76
2022/04/18 10:49:01;;;;;;;3.78;3.38;;;12.60;99.90;;;;;;5042982;28;20032;-78
2022/04/18 10:51:28;;;;;;;3.67;3.33;;;12.70;99.90;;;;;;5062313;28;20048;-81
2022/04/18 10:54:13;;;;;;;6.28;2.92;;;12.80;99.90;;;;;;5058781;28;20032;-79
2022/04/18 10:57:13;;;;;;;3.15;2.95;;;12.90;99.90;;;;;;5060033;28;20052;-80
2022/04/18 10:59:42;;;;;;;5.95;3.03;;;12.90;99.90;;;;;;5038246;28;20124;-80
2022/04/18 11:02:29;;;;;;;10.73;3.25;;;13.00;99.90;;;;;;5077179;28;20067;-80
2022/04/18 11:04:54;;;;;;;4.78;2.90;;;13.00;99.90;;;;;;5061833;28;20040;-80
2022/04/18 11:07:40;;;;;;;5.30;3.42;;;13.00;99.90;;;;;;5047106;28;20612;-90
2022/04/18 11:10:26;;;;;;;5.03;3.63;;;13.00;99.90;;;;;;5058691;28;20061;-96
2022/04/18 11:12:59;;;;;;;6.25;3.10;;;13.10;99.90;;;;;;5058229;28;20554;-90
2022/04/18 11:15:25;;;;;;;1.98;1.80;;;13.20;99.90;;;;;;5038255;28;20487;-89
2022/04/18 11:17:51;;;;;;;3.15;2.85;;;13.30;99.90;;;;;;5020050;28;20048;-92
2022/04/18 11:20:32;;;;;;;3.25;2.22;;;13.30;99.90;;;;;;5034025;28;20045;-83
2022/04/18 11:23:30;;;;;;;2.42;1.67;;;13.30;99.90;;;;;;5041684;28;20045;-91
2022/04/18 11:26:01;;;;;;;2.75;2.30;;;13.30;99.90;;;;;;5020550;28;20092;-84
2022/04/18 11:28:39;;;;;;;8.65;3.40;;;13.40;99.90;;;;;;5003426;28;20064;-90
2022/04/18 11:31:09;;;;;;;2.63;2.22;;;13.40;99.90;;;;;;5021083;28;20127;-89
2022/04/18 11:33:43;;;;;;;4.82;2.65;;;13.50;99.90;;;;;;5004490;28;20235;-85
2022/04/18 11:36:09;;;;;;;6.38;2.45;;;13.50;99.90;;;;;;5030035;28;20045;-89
2022/04/18 11:38:36;;;;;;;2.20;2.00;;;13.60;99.90;;;;;;5041781;28;20079;-91
2022/04/18 11:41:12;;;;;;;3.08;1.95;;;13.70;99.90;;;;;;5041399;28;20033;-91
2022/04/18 11:43:38;;;;;;;1.80;1.70;;;13.70;99.90;;;;;;5040679;28;20045;-91
2022/04/18 11:46:09;;;;;;;2.15;1.58;;;13.70;99.90;;;;;;5041150;28;20838;-88
2022/04/18 11:48:38;;;;;;;7.53;2.17;;;13.70;99.90;;;;;;5027453;28;20128;-85
2022/04/18 11:51:05;;;;;;;3.33;1.77;;;13.80;99.90;;;;;;5045424;28;20283;-88
2022/04/18 11:53:32;;;;;;;1.52;1.42;;;13.90;99.90;;;;;;5045955;28;20045;-90
2022/04/18 11:56:02;;;;;;;4.43;2.63;;;13.80;99.90;;;;;;5027530;28;20037;-89
2022/04/18 11:58:28;;;;;;;2.47;2.28;;;13.80;99.90;;;;;;5044866;28;20116;-89
2022/04/18 12:09:14;;;;;;;2.28;1.45;;;14.00;99.90;;;;;;5026606;28;20135;-89
2022/04/18 12:11:40;;;;;;;2.33;1.85;;;14.10;99.90;;;;;;5026602;28;20048;-88
2022/04/18 12:14:06;;;;;;;2.70;2.25;;;14.10;99.90;;;;;;5043714;28;20041;-89
2022/04/18 12:16:33;;;;;;;1.90;1.70;;;14.10;99.90;;;;;;5045093;28;20037;-91
2022/04/18 12:18:58;;;;;;;1.70;1.60;;;14.10;99.90;;;;;;5045250;28;20041;-91
2022/04/18 12:21:24;;;;;;;3.90;1.65;;;14.20;99.90;;;;;;5044600;28;20716;-90
2022/04/18 12:23:58;;;;;;;2.28;1.90;;;14.30;99.90;;;;;;5044831;28;20794;-90
2022/04/18 12:26:26;;;;;;;2.60;2.38;;;14.30;99.90;;;;;;5044027;28;20084;-90
2022/04/18 12:29:17;;;;;;;2.50;2.13;;;14.40;99.90;;;;;;5025944;28;20041;-90
2022/04/18 12:31:43;;;;;;;1.80;1.55;;;14.50;99.90;;;;;;5026677;28;20041;-89
2022/04/18 12:34:19;;;;;;;6.78;1.88;;;14.50;99.90;;;;;;5044440;28;20041;-88
2022/04/18 12:36:54;;;;;;;4.45;1.85;;;14.40;99.90;;;;;;5026300;28;20072;-88
2022/04/18 12:39:25;;;;;;;1.83;1.30;;;14.50;99.90;;;;;;5044255;28;20236;-89
2022/04/18 12:42:00;;;;;;;3.03;2.08;;;14.60;99.90;;;;;;5044240;28;20051;-89
2022/04/18 12:44:27;;;;;;;2.42;1.48;;;14.70;99.90;;;;;;5043483;28;20056;-89
2022/04/18 12:46:53;;;;;;;1.70;1.60;;;14.70;99.90;;;;;;5039964;28;20128;-88
2022/04/18 12:49:18;;;;;;;2.22;1.38;;;14.80;99.90;;;;;;5062082;28;20048;-89
2022/04/18 12:51:50;;;;;;;3.72;1.13;;;14.80;99.90;;;;;;5045906;28;20055;-89
2022/04/18 12:54:20;;;;;;;2.15;1.58;;;14.80;99.90;;;;;;5063772;28;20041;-89
2022/04/18 12:56:47;;;;;;;3.10;1.13;;;14.90;99.90;;;;;;5045651;28;20048;-89
2022/04/18 12:59:14;;;;;;;2.22;1.52;;;14.90;99.90;;;;;;5062147;28;20037;-90
2022/04/18 13:01:40;;;;;;;1.90;1.80;;;15.00;99.90;;;;;;5063712;28;20380;-89
2022/04/18 13:04:23;;;;;;;4.50;2.63;;;15.00;99.90;;;;;;5063655;28;20445;-90
2022/04/18 13:06:57;;;;;;;2.97;1.77;;;15.00;96.20;;;;;;5063711;28;20056;-89
2022/04/18 13:09:23;;;;;;;2.83;1.20;;;15.10;99.50;;;;;;5063137;28;20061;-89
2022/04/18 13:11:49;;;;;;;1.35;1.25;;;15.10;99.90;;;;;;5046051;28;20411;-89
2022/04/18 13:14:15;;;;;;;2.00;1.83;;;15.10;99.90;;;;;;5062361;28;20116;-90
2022/04/18 13:16:42;;;;;;;6.18;1.70;;;15.10;99.90;;;;;;5045845;28;20052;-90
2022/04/18 13:19:15;;;;;;;1.98;1.77;;;15.10;99.90;;;;;;5045221;28;20045;-89
2022/04/18 13:21:41;;;;;;;1.65;1.55;;;15.10;99.20;;;;;;5045663;28;20056;-89